sensor_id;sensor_type;location;lat;lon;timestamp;P1;P2;P0
55686;PMS5003;41911;52.362;4.978;2023-02-15T00:01:27;84.0;83.0;
55686;PMS5003;41911;52.362;4.978;2023-02-15T00:01:58;91.0;84.0;
55686;PMS5003;41911;52.362;4.978;2023-02-15T00:02:29;90.0;84.0;
55686;PMS5003;41911;52.362;4.978;2023-02-15T00:03:00;90.0;82.0;
55686;PMS5003;41911;52.362;4.978;2023-02-15T00:03:30;92.0;88.0;
55686;PMS5003;41911;52.362;4.978;2023-02-15T00:04:01;93.0;85.0;
55686;PMS5003;41911;52.362;4.978;2023-02-15T00:04:33;89.0;84.0;
55686;PMS5003;41911;52.362;4.978;2023-02-15T00:05:07;94.0;86.0;
55686;PMS5003;41911;52.362;4.978;2023-02-15T00:05:39;87.0;81.0;
55686;PMS5003;41911;52.362;4.978;2023-02-15T00:06:10;92.0;89.0;
55686;PMS5003;41911;52.362;4.978;2023-02-15T00:06:41;101.0;91.0;
55686;PMS5003;41911;52.362;4.978;2023-02-15T00:07:14;94.0;87.0;
55686;PMS5003;41911;52.362;4.978;2023-02-15T00:07:46;88.0;82.0;
55686;PMS5003;41911;52.362;4.978;2023-02-15T00:08:17;86.0;77.0;
55686;PMS5003;41911;52.362;4.978;2023-02-15T00:08:48;84.0;82.0;
55686;PMS5003;41911;52.362;4.978;2023-02-15T00:09:19;84.0;80.0;
55686;PMS5003;41911;52.362;4.978;2023-02-15T00:09:50;84.0;79.0;
55686;PMS5003;41911;52.362;4.978;2023-02-15T00:10:21;97.0;89.0;
55686;PMS5003;41911;52.362;4.978;2023-02-15T00:10:52;87.0;84.0;
55686;PMS5003;41911;52.362;4.978;2023-02-15T00:11:23;90.0;87.0;
55686;PMS5003;41911;52.362;4.978;2023-02-15T00:11:54;93.0;84.0;
55686;PMS5003;41911;52.362;4.978;2023-02-15T00:12:25;93.0;88.0;
55686;PMS5003;41911;52.362;4.978;2023-02-15T00:12:56;92.0;81.0;
55686;PMS5003;41911;52.362;4.978;2023-02-15T00:13:27;94.0;86.0;
55686;PMS5003;41911;52.362;4.978;2023-02-15T00:13:58;96.0;87.0;
55686;PMS5003;41911;52.362;4.978;2023-02-15T00:14:29;95.0;89.0;
55686;PMS5003;41911;52.362;4.978;2023-02-15T00:15:00;91.0;86.0;
55686;PMS5003;41911;52.362;4.978;2023-02-15T00:15:31;93.0;87.0;
55686;PMS5003;41911;52.362;4.978;2023-02-15T00:16:02;100.0;90.0;
55686;PMS5003;41911;52.362;4.978;2023-02-15T00:16:35;89.0;84.0;
55686;PMS5003;41911;52.362;4.978;2023-02-15T00:17:07;93.0;89.0;
55686;PMS5003;41911;52.362;4.978;2023-02-15T00:17:38;87.0;85.0;
55686;PMS5003;41911;52.362;4.978;2023-02-15T00:18:09;93.0;87.0;
55686;PMS5003;41911;52.362;4.978;2023-02-15T00:18:40;88.0;83.0;
55686;PMS5003;41911;52.362;4.978;2023-02-15T00:19:11;95.0;89.0;
55686;PMS5003;41911;52.362;4.978;2023-02-15T00:19:43;88.0;86.0;
55686;PMS5003;41911;52.362;4.978;2023-02-15T00:20:14;92.0;87.0;
55686;PMS5003;41911;52.362;4.978;2023-02-15T00:20:45;89.0;86.0;
55686;PMS5003;41911;52.362;4.978;2023-02-15T00:21:16;90.0;84.0;
55686;PMS5003;41911;52.362;4.978;2023-02-15T00:21:47;92.0;89.0;
55686;PMS5003;41911;52.362;4.978;2023-02-15T00:22:19;95.0;89.0;
55686;PMS5003;41911;52.362;4.978;2023-02-15T00:22:50;97.0;89.0;
55686;PMS5003;41911;52.362;4.978;2023-02-15T00:23:22;92.0;83.0;
55686;PMS5003;41911;52.362;4.978;2023-02-15T00:23:54;92.0;90.0;
55686;PMS5003;41911;52.362;4.978;2023-02-15T00:24:27;93.0;85.0;
55686;PMS5003;41911;52.362;4.978;2023-02-15T00:24:58;103.0;93.0;
55686;PMS5003;41911;52.362;4.978;2023-02-15T00:25:29;85.0;79.0;
55686;PMS5003;41911;52.362;4.978;2023-02-15T00:26:04;91.0;84.0;
55686;PMS5003;41911;52.362;4.978;2023-02-15T00:26:37;89.0;84.0;
55686;PMS5003;41911;52.362;4.978;2023-02-15T00:27:09;90.0;86.0;
55686;PMS5003;41911;52.362;4.978;2023-02-15T00:27:42;93.0;87.0;
55686;PMS5003;41911;52.362;4.978;2023-02-15T00:28:13;95.0;89.0;
55686;PMS5003;41911;52.362;4.978;2023-02-15T00:28:44;88.0;85.0;
55686;PMS5003;41911;52.362;4.978;2023-02-15T00:29:15;93.0;86.0;
55686;PMS5003;41911;52.362;4.978;2023-02-15T00:29:47;92.0;85.0;
55686;PMS5003;41911;52.362;4.978;2023-02-15T00:30:18;89.0;83.0;
55686;PMS5003;41911;52.362;4.978;2023-02-15T00:30:49;97.0;91.0;
55686;PMS5003;41911;52.362;4.978;2023-02-15T00:31:20;94.0;89.0;
55686;PMS5003;41911;52.362;4.978;2023-02-15T00:31:52;88.0;86.0;
55686;PMS5003;41911;52.362;4.978;2023-02-15T00:32:23;88.0;85.0;
55686;PMS5003;41911;52.362;4.978;2023-02-15T00:32:54;91.0;84.0;
55686;PMS5003;41911;52.362;4.978;2023-02-15T00:33:24;83.0;80.0;
55686;PMS5003;41911;52.362;4.978;2023-02-15T00:33:55;89.0;85.0;
55686;PMS5003;41911;52.362;4.978;2023-02-15T00:34:30;91.0;87.0;
55686;PMS5003;41911;52.362;4.978;2023-02-15T00:35:02;87.0;81.0;
55686;PMS5003;41911;52.362;4.978;2023-02-15T00:35:33;95.0;89.0;
55686;PMS5003;41911;52.362;4.978;2023-02-15T00:36:04;100.0;92.0;
55686;PMS5003;41911;52.362;4.978;2023-02-15T00:36:37;91.0;85.0;
55686;PMS5003;41911;52.362;4.978;2023-02-15T00:37:08;92.0;89.0;
55686;PMS5003;41911;52.362;4.978;2023-02-15T00:37:39;90.0;86.0;
55686;PMS5003;41911;52.362;4.978;2023-02-15T00:38:12;87.0;84.0;
55686;PMS5003;41911;52.362;4.978;2023-02-15T00:38:43;89.0;86.0;
55686;PMS5003;41911;52.362;4.978;2023-02-15T00:39:14;95.0;85.0;
55686;PMS5003;41911;52.362;4.978;2023-02-15T00:39:46;86.0;83.0;
55686;PMS5003;41911;52.362;4.978;2023-02-15T00:40:17;95.0;88.0;
55686;PMS5003;41911;52.362;4.978;2023-02-15T00:40:52;97.0;84.0;
55686;PMS5003;41911;52.362;4.978;2023-02-15T00:41:24;97.0;88.0;
55686;PMS5003;41911;52.362;4.978;2023-02-15T00:41:55;91.0;82.0;
55686;PMS5003;41911;52.362;4.978;2023-02-15T00:42:26;92.0;84.0;
55686;PMS5003;41911;52.362;4.978;2023-02-15T00:42:57;86.0;82.0;
55686;PMS5003;41911;52.362;4.978;2023-02-15T00:43:30;97.0;86.0;
55686;PMS5003;41911;52.362;4.978;2023-02-15T00:44:03;87.0;83.0;
55686;PMS5003;41911;52.362;4.978;2023-02-15T00:44:34;94.0;87.0;
55686;PMS5003;41911;52.362;4.978;2023-02-15T00:45:05;95.0;89.0;
55686;PMS5003;41911;52.362;4.978;2023-02-15T00:45:37;96.0;86.0;
55686;PMS5003;41911;52.362;4.978;2023-02-15T00:46:08;94.0;87.0;
55686;PMS5003;41911;52.362;4.978;2023-02-15T00:46:39;84.0;81.0;
55686;PMS5003;41911;52.362;4.978;2023-02-15T00:47:10;89.0;78.0;
55686;PMS5003;41911;52.362;4.978;2023-02-15T00:47:41;91.0;85.0;
55686;PMS5003;41911;52.362;4.978;2023-02-15T00:48:12;98.0;87.0;
55686;PMS5003;41911;52.362;4.978;2023-02-15T00:48:43;81.0;78.0;
55686;PMS5003;41911;52.362;4.978;2023-02-15T00:49:14;87.0;83.0;
55686;PMS5003;41911;52.362;4.978;2023-02-15T00:49:46;89.0;81.0;
55686;PMS5003;41911;52.362;4.978;2023-02-15T00:50:17;84.0;82.0;
55686;PMS5003;41911;52.362;4.978;2023-02-15T00:50:49;91.0;83.0;
55686;PMS5003;41911;52.362;4.978;2023-02-15T00:51:22;84.0;77.0;
55686;PMS5003;41911;52.362;4.978;2023-02-15T00:51:53;92.0;87.0;
55686;PMS5003;41911;52.362;4.978;2023-02-15T00:52:24;86.0;80.0;
55686;PMS5003;41911;52.362;4.978;2023-02-15T00:52:57;88.0;84.0;
55686;PMS5003;41911;52.362;4.978;2023-02-15T00:53:28;84.0;82.0;
55686;PMS5003;41911;52.362;4.978;2023-02-15T00:54:01;93.0;88.0;
55686;PMS5003;41911;52.362;4.978;2023-02-15T00:54:32;97.0;82.0;
55686;PMS5003;41911;52.362;4.978;2023-02-15T00:55:03;83.0;79.0;
55686;PMS5003;41911;52.362;4.978;2023-02-15T00:55:34;85.0;80.0;
55686;PMS5003;41911;52.362;4.978;2023-02-15T00:56:05;87.0;83.0;
55686;PMS5003;41911;52.362;4.978;2023-02-15T00:56:36;95.0;87.0;
55686;PMS5003;41911;52.362;4.978;2023-02-15T00:57:07;95.0;87.0;
55686;PMS5003;41911;52.362;4.978;2023-02-15T00:57:38;82.0;80.0;
55686;PMS5003;41911;52.362;4.978;2023-02-15T00:58:09;90.0;87.0;
55686;PMS5003;41911;52.362;4.978;2023-02-15T00:58:41;92.0;82.0;
55686;PMS5003;41911;52.362;4.978;2023-02-15T00:59:12;85.0;81.0;
55686;PMS5003;41911;52.362;4.978;2023-02-15T00:59:43;86.0;81.0;
55686;PMS5003;41911;52.362;4.978;2023-02-15T01:00:15;87.0;83.0;
55686;PMS5003;41911;52.362;4.978;2023-02-15T01:00:46;88.0;81.0;
55686;PMS5003;41911;52.362;4.978;2023-02-15T01:01:20;82.0;78.0;
55686;PMS5003;41911;52.362;4.978;2023-02-15T01:01:51;79.0;76.0;
55686;PMS5003;41911;52.362;4.978;2023-02-15T01:02:22;84.0;79.0;
55686;PMS5003;41911;52.362;4.978;2023-02-15T01:02:53;89.0;86.0;
55686;PMS5003;41911;52.362;4.978;2023-02-15T01:03:24;82.0;78.0;
55686;PMS5003;41911;52.362;4.978;2023-02-15T01:03:55;84.0;76.0;
55686;PMS5003;41911;52.362;4.978;2023-02-15T01:04:26;81.0;76.0;
55686;PMS5003;41911;52.362;4.978;2023-02-15T01:04:57;77.0;73.0;
55686;PMS5003;41911;52.362;4.978;2023-02-15T01:05:28;79.0;78.0;
55686;PMS5003;41911;52.362;4.978;2023-02-15T01:05:59;85.0;78.0;
55686;PMS5003;41911;52.362;4.978;2023-02-15T01:06:31;77.0;74.0;
55686;PMS5003;41911;52.362;4.978;2023-02-15T01:07:04;80.0;72.0;
55686;PMS5003;41911;52.362;4.978;2023-02-15T01:07:35;76.0;69.0;
55686;PMS5003;41911;52.362;4.978;2023-02-15T01:08:06;75.0;73.0;
55686;PMS5003;41911;52.362;4.978;2023-02-15T01:08:37;83.0;77.0;
55686;PMS5003;41911;52.362;4.978;2023-02-15T01:09:08;77.0;76.0;
55686;PMS5003;41911;52.362;4.978;2023-02-15T01:09:39;80.0;75.0;
55686;PMS5003;41911;52.362;4.978;2023-02-15T01:10:10;71.0;68.0;
55686;PMS5003;41911;52.362;4.978;2023-02-15T01:10:41;77.0;73.0;
55686;PMS5003;41911;52.362;4.978;2023-02-15T01:11:13;81.0;79.0;
55686;PMS5003;41911;52.362;4.978;2023-02-15T01:11:45;79.0;76.0;
55686;PMS5003;41911;52.362;4.978;2023-02-15T01:12:17;80.0;75.0;
55686;PMS5003;41911;52.362;4.978;2023-02-15T01:12:48;79.0;74.0;
55686;PMS5003;41911;52.362;4.978;2023-02-15T01:13:20;74.0;71.0;
55686;PMS5003;41911;52.362;4.978;2023-02-15T01:13:52;76.0;73.0;
55686;PMS5003;41911;52.362;4.978;2023-02-15T01:14:24;80.0;75.0;
55686;PMS5003;41911;52.362;4.978;2023-02-15T01:14:55;88.0;74.0;
55686;PMS5003;41911;52.362;4.978;2023-02-15T01:15:26;78.0;73.0;
55686;PMS5003;41911;52.362;4.978;2023-02-15T01:15:57;82.0;78.0;
55686;PMS5003;41911;52.362;4.978;2023-02-15T01:16:28;77.0;70.0;
55686;PMS5003;41911;52.362;4.978;2023-02-15T01:16:59;75.0;71.0;
55686;PMS5003;41911;52.362;4.978;2023-02-15T01:17:30;81.0;76.0;
55686;PMS5003;41911;52.362;4.978;2023-02-15T01:18:02;70.0;67.0;
55686;PMS5003;41911;52.362;4.978;2023-02-15T01:18:33;75.0;72.0;
55686;PMS5003;41911;52.362;4.978;2023-02-15T01:19:06;76.0;71.0;
55686;PMS5003;41911;52.362;4.978;2023-02-15T01:19:36;73.0;71.0;
55686;PMS5003;41911;52.362;4.978;2023-02-15T01:20:08;80.0;75.0;
55686;PMS5003;41911;52.362;4.978;2023-02-15T01:20:39;74.0;70.0;
55686;PMS5003;41911;52.362;4.978;2023-02-15T01:21:11;75.0;72.0;
55686;PMS5003;41911;52.362;4.978;2023-02-15T01:21:43;80.0;73.0;
55686;PMS5003;41911;52.362;4.978;2023-02-15T01:22:13;75.0;70.0;
55686;PMS5003;41911;52.362;4.978;2023-02-15T01:22:46;78.0;75.0;
55686;PMS5003;41911;52.362;4.978;2023-02-15T01:23:17;74.0;70.0;
55686;PMS5003;41911;52.362;4.978;2023-02-15T01:23:50;73.0;70.0;
55686;PMS5003;41911;52.362;4.978;2023-02-15T01:24:21;76.0;68.0;
55686;PMS5003;41911;52.362;4.978;2023-02-15T01:24:52;75.0;71.0;
55686;PMS5003;41911;52.362;4.978;2023-02-15T01:25:24;73.0;70.0;
55686;PMS5003;41911;52.362;4.978;2023-02-15T01:25:55;76.0;72.0;
55686;PMS5003;41911;52.362;4.978;2023-02-15T01:26:26;70.0;69.0;
55686;PMS5003;41911;52.362;4.978;2023-02-15T01:26:57;80.0;75.0;
55686;PMS5003;41911;52.362;4.978;2023-02-15T01:27:28;78.0;70.0;
55686;PMS5003;41911;52.362;4.978;2023-02-15T01:27:59;82.0;75.0;
55686;PMS5003;41911;52.362;4.978;2023-02-15T01:28:30;72.0;70.0;
55686;PMS5003;41911;52.362;4.978;2023-02-15T01:29:01;77.0;72.0;
55686;PMS5003;41911;52.362;4.978;2023-02-15T01:29:32;77.0;71.0;
55686;PMS5003;41911;52.362;4.978;2023-02-15T01:30:03;76.0;72.0;
55686;PMS5003;41911;52.362;4.978;2023-02-15T01:30:35;77.0;75.0;
55686;PMS5003;41911;52.362;4.978;2023-02-15T01:31:07;68.0;65.0;
55686;PMS5003;41911;52.362;4.978;2023-02-15T01:31:39;72.0;68.0;
55686;PMS5003;41911;52.362;4.978;2023-02-15T01:32:10;73.0;71.0;
55686;PMS5003;41911;52.362;4.978;2023-02-15T01:32:41;73.0;71.0;
55686;PMS5003;41911;52.362;4.978;2023-02-15T01:33:13;73.0;68.0;
55686;PMS5003;41911;52.362;4.978;2023-02-15T01:33:44;71.0;71.0;
55686;PMS5003;41911;52.362;4.978;2023-02-15T01:34:15;69.0;61.0;
55686;PMS5003;41911;52.362;4.978;2023-02-15T01:34:46;74.0;71.0;
55686;PMS5003;41911;52.362;4.978;2023-02-15T01:35:17;80.0;70.0;
55686;PMS5003;41911;52.362;4.978;2023-02-15T01:35:48;74.0;69.0;
55686;PMS5003;41911;52.362;4.978;2023-02-15T01:36:25;81.0;75.0;
55686;PMS5003;41911;52.362;4.978;2023-02-15T01:36:56;71.0;68.0;
55686;PMS5003;41911;52.362;4.978;2023-02-15T01:37:29;70.0;65.0;
55686;PMS5003;41911;52.362;4.978;2023-02-15T01:38:00;79.0;73.0;
55686;PMS5003;41911;52.362;4.978;2023-02-15T01:38:32;81.0;76.0;
55686;PMS5003;41911;52.362;4.978;2023-02-15T01:39:04;85.0;77.0;
55686;PMS5003;41911;52.362;4.978;2023-02-15T01:39:35;78.0;73.0;
55686;PMS5003;41911;52.362;4.978;2023-02-15T01:40:07;78.0;71.0;
55686;PMS5003;41911;52.362;4.978;2023-02-15T01:40:44;68.0;64.0;
55686;PMS5003;41911;52.362;4.978;2023-02-15T01:41:15;77.0;73.0;
55686;PMS5003;41911;52.362;4.978;2023-02-15T01:41:46;78.0;72.0;
55686;PMS5003;41911;52.362;4.978;2023-02-15T01:42:21;74.0;70.0;
55686;PMS5003;41911;52.362;4.978;2023-02-15T01:42:53;73.0;70.0;
55686;PMS5003;41911;52.362;4.978;2023-02-15T01:43:38;79.0;74.0;
55686;PMS5003;41911;52.362;4.978;2023-02-15T01:45:18;74.0;68.0;
55686;PMS5003;41911;52.362;4.978;2023-02-15T01:45:51;80.0;71.0;
55686;PMS5003;41911;52.362;4.978;2023-02-15T01:46:24;73.0;68.0;
55686;PMS5003;41911;52.362;4.978;2023-02-15T01:47:01;84.0;76.0;
55686;PMS5003;41911;52.362;4.978;2023-02-15T01:47:33;76.0;72.0;
55686;PMS5003;41911;52.362;4.978;2023-02-15T01:48:14;73.0;71.0;
55686;PMS5003;41911;52.362;4.978;2023-02-15T01:48:52;74.0;70.0;
55686;PMS5003;41911;52.362;4.978;2023-02-15T01:49:26;74.0;70.0;
55686;PMS5003;41911;52.362;4.978;2023-02-15T01:50:00;74.0;69.0;
55686;PMS5003;41911;52.362;4.978;2023-02-15T01:50:37;83.0;78.0;
55686;PMS5003;41911;52.362;4.978;2023-02-15T01:51:11;72.0;67.0;
55686;PMS5003;41911;52.362;4.978;2023-02-15T01:51:44;80.0;77.0;
55686;PMS5003;41911;52.362;4.978;2023-02-15T01:52:18;75.0;70.0;
55686;PMS5003;41911;52.362;4.978;2023-02-15T01:52:50;78.0;75.0;
55686;PMS5003;41911;52.362;4.978;2023-02-15T01:53:27;82.0;79.0;
55686;PMS5003;41911;52.362;4.978;2023-02-15T01:54:05;82.0;76.0;
55686;PMS5003;41911;52.362;4.978;2023-02-15T01:54:41;82.0;75.0;
55686;PMS5003;41911;52.362;4.978;2023-02-15T01:55:17;72.0;68.0;
55686;PMS5003;41911;52.362;4.978;2023-02-15T01:55:50;74.0;73.0;
55686;PMS5003;41911;52.362;4.978;2023-02-15T01:56:27;78.0;76.0;
55686;PMS5003;41911;52.362;4.978;2023-02-15T01:57:03;69.0;65.0;
55686;PMS5003;41911;52.362;4.978;2023-02-15T01:57:38;78.0;75.0;
55686;PMS5003;41911;52.362;4.978;2023-02-15T01:58:11;79.0;73.0;
55686;PMS5003;41911;52.362;4.978;2023-02-15T01:58:42;69.0;67.0;
55686;PMS5003;41911;52.362;4.978;2023-02-15T01:59:16;76.0;70.0;
55686;PMS5003;41911;52.362;4.978;2023-02-15T01:59:53;74.0;70.0;
55686;PMS5003;41911;52.362;4.978;2023-02-15T02:00:28;70.0;67.0;
55686;PMS5003;41911;52.362;4.978;2023-02-15T02:01:00;78.0;73.0;
55686;PMS5003;41911;52.362;4.978;2023-02-15T02:01:32;72.0;70.0;
55686;PMS5003;41911;52.362;4.978;2023-02-15T02:02:03;76.0;74.0;
55686;PMS5003;41911;52.362;4.978;2023-02-15T02:02:37;75.0;68.0;
55686;PMS5003;41911;52.362;4.978;2023-02-15T02:03:08;69.0;66.0;
55686;PMS5003;41911;52.362;4.978;2023-02-15T02:03:42;76.0;73.0;
55686;PMS5003;41911;52.362;4.978;2023-02-15T02:04:23;79.0;73.0;
55686;PMS5003;41911;52.362;4.978;2023-02-15T02:05:03;73.0;71.0;
55686;PMS5003;41911;52.362;4.978;2023-02-15T02:05:37;76.0;69.0;
55686;PMS5003;41911;52.362;4.978;2023-02-15T02:06:09;72.0;68.0;
55686;PMS5003;41911;52.362;4.978;2023-02-15T02:06:40;78.0;72.0;
55686;PMS5003;41911;52.362;4.978;2023-02-15T02:07:12;67.0;66.0;
55686;PMS5003;41911;52.362;4.978;2023-02-15T02:07:46;74.0;73.0;
55686;PMS5003;41911;52.362;4.978;2023-02-15T02:08:19;64.0;62.0;
55686;PMS5003;41911;52.362;4.978;2023-02-15T02:08:50;63.0;63.0;
55686;PMS5003;41911;52.362;4.978;2023-02-15T02:09:23;75.0;68.0;
55686;PMS5003;41911;52.362;4.978;2023-02-15T02:09:54;68.0;64.0;
55686;PMS5003;41911;52.362;4.978;2023-02-15T02:10:25;69.0;68.0;
55686;PMS5003;41911;52.362;4.978;2023-02-15T02:10:56;70.0;68.0;
55686;PMS5003;41911;52.362;4.978;2023-02-15T02:11:27;67.0;64.0;
55686;PMS5003;41911;52.362;4.978;2023-02-15T02:11:58;69.0;63.0;
55686;PMS5003;41911;52.362;4.978;2023-02-15T02:12:31;74.0;70.0;
55686;PMS5003;41911;52.362;4.978;2023-02-15T02:13:03;70.0;66.0;
55686;PMS5003;41911;52.362;4.978;2023-02-15T02:13:36;72.0;71.0;
55686;PMS5003;41911;52.362;4.978;2023-02-15T02:14:07;78.0;72.0;
55686;PMS5003;41911;52.362;4.978;2023-02-15T02:14:38;73.0;69.0;
55686;PMS5003;41911;52.362;4.978;2023-02-15T02:15:11;76.0;69.0;
55686;PMS5003;41911;52.362;4.978;2023-02-15T02:15:44;69.0;68.0;
55686;PMS5003;41911;52.362;4.978;2023-02-15T02:16:25;80.0;71.0;
55686;PMS5003;41911;52.362;4.978;2023-02-15T02:17:03;76.0;70.0;
55686;PMS5003;41911;52.362;4.978;2023-02-15T02:17:44;75.0;69.0;
55686;PMS5003;41911;52.362;4.978;2023-02-15T02:18:29;67.0;63.0;
55686;PMS5003;41911;52.362;4.978;2023-02-15T02:19:25;72.0;69.0;
55686;PMS5003;41911;52.362;4.978;2023-02-15T02:22:20;78.0;73.0;
55686;PMS5003;41911;52.362;4.978;2023-02-15T02:23:23;68.0;63.0;
55686;PMS5003;41911;52.362;4.978;2023-02-15T02:24:08;75.0;69.0;
55686;PMS5003;41911;52.362;4.978;2023-02-15T02:24:59;75.0;73.0;
55686;PMS5003;41911;52.362;4.978;2023-02-15T02:25:54;69.0;67.0;
55686;PMS5003;41911;52.362;4.978;2023-02-15T02:28:50;70.0;69.0;
55686;PMS5003;41911;52.362;4.978;2023-02-15T02:32:43;74.0;69.0;
55686;PMS5003;41911;52.362;4.978;2023-02-15T02:33:43;75.0;70.0;
55686;PMS5003;41911;52.362;4.978;2023-02-15T02:34:28;73.0;69.0;
55686;PMS5003;41911;52.362;4.978;2023-02-15T02:35:05;70.0;66.0;
55686;PMS5003;41911;52.362;4.978;2023-02-15T02:35:44;74.0;70.0;
55686;PMS5003;41911;52.362;4.978;2023-02-15T02:36:25;73.0;71.0;
55686;PMS5003;41911;52.362;4.978;2023-02-15T02:37:08;75.0;66.0;
55686;PMS5003;41911;52.362;4.978;2023-02-15T02:37:52;79.0;76.0;
55686;PMS5003;41911;52.362;4.978;2023-02-15T02:38:33;77.0;69.0;
55686;PMS5003;41911;52.362;4.978;2023-02-15T02:39:21;72.0;69.0;
55686;PMS5003;41911;52.362;4.978;2023-02-15T02:40:02;72.0;70.0;
55686;PMS5003;41911;52.362;4.978;2023-02-15T02:40:46;76.0;70.0;
55686;PMS5003;41911;52.362;4.978;2023-02-15T02:41:29;81.0;72.0;
55686;PMS5003;41911;52.362;4.978;2023-02-15T02:42:08;79.0;73.0;
55686;PMS5003;41911;52.362;4.978;2023-02-15T02:42:48;67.0;63.0;
55686;PMS5003;41911;52.362;4.978;2023-02-15T02:43:28;73.0;70.0;
55686;PMS5003;41911;52.362;4.978;2023-02-15T02:44:07;74.0;72.0;
55686;PMS5003;41911;52.362;4.978;2023-02-15T02:44:47;75.0;69.0;
55686;PMS5003;41911;52.362;4.978;2023-02-15T02:45:24;67.0;65.0;
55686;PMS5003;41911;52.362;4.978;2023-02-15T02:46:02;70.0;66.0;
55686;PMS5003;41911;52.362;4.978;2023-02-15T02:46:46;70.0;68.0;
55686;PMS5003;41911;52.362;4.978;2023-02-15T02:47:24;72.0;65.0;
55686;PMS5003;41911;52.362;4.978;2023-02-15T02:48:03;69.0;67.0;
55686;PMS5003;41911;52.362;4.978;2023-02-15T02:48:38;69.0;66.0;
55686;PMS5003;41911;52.362;4.978;2023-02-15T02:49:09;80.0;70.0;
55686;PMS5003;41911;52.362;4.978;2023-02-15T02:49:42;72.0;72.0;
55686;PMS5003;41911;52.362;4.978;2023-02-15T02:50:15;74.0;70.0;
55686;PMS5003;41911;52.362;4.978;2023-02-15T02:50:47;72.0;67.0;
55686;PMS5003;41911;52.362;4.978;2023-02-15T02:51:18;69.0;67.0;
55686;PMS5003;41911;52.362;4.978;2023-02-15T02:51:57;73.0;69.0;
55686;PMS5003;41911;52.362;4.978;2023-02-15T02:52:34;75.0;72.0;
55686;PMS5003;41911;52.362;4.978;2023-02-15T02:53:08;72.0;68.0;
55686;PMS5003;41911;52.362;4.978;2023-02-15T02:53:40;74.0;69.0;
55686;PMS5003;41911;52.362;4.978;2023-02-15T02:54:11;79.0;76.0;
55686;PMS5003;41911;52.362;4.978;2023-02-15T02:54:42;77.0;72.0;
55686;PMS5003;41911;52.362;4.978;2023-02-15T02:55:15;73.0;68.0;
55686;PMS5003;41911;52.362;4.978;2023-02-15T02:55:50;66.0;65.0;
55686;PMS5003;41911;52.362;4.978;2023-02-15T02:56:27;77.0;72.0;
55686;PMS5003;41911;52.362;4.978;2023-02-15T02:57:01;72.0;71.0;
55686;PMS5003;41911;52.362;4.978;2023-02-15T02:57:41;73.0;67.0;
55686;PMS5003;41911;52.362;4.978;2023-02-15T02:58:19;70.0;68.0;
55686;PMS5003;41911;52.362;4.978;2023-02-15T02:58:55;68.0;64.0;
55686;PMS5003;41911;52.362;4.978;2023-02-15T02:59:30;73.0;66.0;
55686;PMS5003;41911;52.362;4.978;2023-02-15T03:00:04;71.0;69.0;
55686;PMS5003;41911;52.362;4.978;2023-02-15T03:00:37;71.0;66.0;
55686;PMS5003;41911;52.362;4.978;2023-02-15T03:01:17;73.0;68.0;
55686;PMS5003;41911;52.362;4.978;2023-02-15T03:01:53;73.0;67.0;
55686;PMS5003;41911;52.362;4.978;2023-02-15T03:02:30;78.0;73.0;
55686;PMS5003;41911;52.362;4.978;2023-02-15T03:03:06;86.0;77.0;
55686;PMS5003;41911;52.362;4.978;2023-02-15T03:03:42;78.0;73.0;
55686;PMS5003;41911;52.362;4.978;2023-02-15T03:04:17;68.0;65.0;
55686;PMS5003;41911;52.362;4.978;2023-02-15T03:04:55;74.0;73.0;
55686;PMS5003;41911;52.362;4.978;2023-02-15T03:05:31;76.0;73.0;
55686;PMS5003;41911;52.362;4.978;2023-02-15T03:06:08;77.0;72.0;
55686;PMS5003;41911;52.362;4.978;2023-02-15T03:06:46;76.0;74.0;
55686;PMS5003;41911;52.362;4.978;2023-02-15T03:07:22;66.0;61.0;
55686;PMS5003;41911;52.362;4.978;2023-02-15T03:07:56;73.0;70.0;
55686;PMS5003;41911;52.362;4.978;2023-02-15T03:08:30;76.0;74.0;
55686;PMS5003;41911;52.362;4.978;2023-02-15T03:09:09;72.0;67.0;
55686;PMS5003;41911;52.362;4.978;2023-02-15T03:09:43;74.0;72.0;
55686;PMS5003;41911;52.362;4.978;2023-02-15T03:10:20;71.0;69.0;
55686;PMS5003;41911;52.362;4.978;2023-02-15T03:10:54;78.0;74.0;
55686;PMS5003;41911;52.362;4.978;2023-02-15T03:11:31;69.0;66.0;
55686;PMS5003;41911;52.362;4.978;2023-02-15T03:12:02;67.0;67.0;
55686;PMS5003;41911;52.362;4.978;2023-02-15T03:12:35;77.0;72.0;
55686;PMS5003;41911;52.362;4.978;2023-02-15T03:13:09;72.0;66.0;
55686;PMS5003;41911;52.362;4.978;2023-02-15T03:13:40;84.0;78.0;
55686;PMS5003;41911;52.362;4.978;2023-02-15T03:14:12;70.0;67.0;
55686;PMS5003;41911;52.362;4.978;2023-02-15T03:14:45;82.0;69.0;
55686;PMS5003;41911;52.362;4.978;2023-02-15T03:15:19;65.0;63.0;
55686;PMS5003;41911;52.362;4.978;2023-02-15T03:15:53;76.0;71.0;
55686;PMS5003;41911;52.362;4.978;2023-02-15T03:16:25;78.0;73.0;
55686;PMS5003;41911;52.362;4.978;2023-02-15T03:16:57;72.0;63.0;
55686;PMS5003;41911;52.362;4.978;2023-02-15T03:17:32;72.0;66.0;
55686;PMS5003;41911;52.362;4.978;2023-02-15T03:18:06;70.0;67.0;
55686;PMS5003;41911;52.362;4.978;2023-02-15T03:18:39;73.0;68.0;
55686;PMS5003;41911;52.362;4.978;2023-02-15T03:19:19;75.0;72.0;
55686;PMS5003;41911;52.362;4.978;2023-02-15T03:19:54;72.0;70.0;
55686;PMS5003;41911;52.362;4.978;2023-02-15T03:20:28;80.0;75.0;
55686;PMS5003;41911;52.362;4.978;2023-02-15T03:21:02;74.0;68.0;
55686;PMS5003;41911;52.362;4.978;2023-02-15T03:21:35;71.0;67.0;
55686;PMS5003;41911;52.362;4.978;2023-02-15T03:22:10;68.0;65.0;
55686;PMS5003;41911;52.362;4.978;2023-02-15T03:22:50;79.0;75.0;
55686;PMS5003;41911;52.362;4.978;2023-02-15T03:23:27;68.0;64.0;
55686;PMS5003;41911;52.362;4.978;2023-02-15T03:24:00;75.0;73.0;
55686;PMS5003;41911;52.362;4.978;2023-02-15T03:24:39;74.0;73.0;
55686;PMS5003;41911;52.362;4.978;2023-02-15T03:25:14;72.0;68.0;
55686;PMS5003;41911;52.362;4.978;2023-02-15T03:25:52;73.0;69.0;
55686;PMS5003;41911;52.362;4.978;2023-02-15T03:26:30;77.0;75.0;
55686;PMS5003;41911;52.362;4.978;2023-02-15T03:27:07;77.0;69.0;
55686;PMS5003;41911;52.362;4.978;2023-02-15T03:27:44;77.0;71.0;
55686;PMS5003;41911;52.362;4.978;2023-02-15T03:28:19;73.0;71.0;
55686;PMS5003;41911;52.362;4.978;2023-02-15T03:28:55;68.0;65.0;
55686;PMS5003;41911;52.362;4.978;2023-02-15T03:29:28;70.0;67.0;
55686;PMS5003;41911;52.362;4.978;2023-02-15T03:30:02;75.0;70.0;
55686;PMS5003;41911;52.362;4.978;2023-02-15T03:30:35;80.0;77.0;
55686;PMS5003;41911;52.362;4.978;2023-02-15T03:31:12;74.0;71.0;
55686;PMS5003;41911;52.362;4.978;2023-02-15T03:31:46;76.0;71.0;
55686;PMS5003;41911;52.362;4.978;2023-02-15T03:32:24;67.0;64.0;
55686;PMS5003;41911;52.362;4.978;2023-02-15T03:32:58;75.0;71.0;
55686;PMS5003;41911;52.362;4.978;2023-02-15T03:33:31;80.0;74.0;
55686;PMS5003;41911;52.362;4.978;2023-02-15T03:34:08;76.0;68.0;
55686;PMS5003;41911;52.362;4.978;2023-02-15T03:34:43;79.0;76.0;
55686;PMS5003;41911;52.362;4.978;2023-02-15T03:35:15;77.0;72.0;
55686;PMS5003;41911;52.362;4.978;2023-02-15T03:35:49;63.0;62.0;
55686;PMS5003;41911;52.362;4.978;2023-02-15T03:36:26;68.0;65.0;
55686;PMS5003;41911;52.362;4.978;2023-02-15T03:37:04;65.0;63.0;
55686;PMS5003;41911;52.362;4.978;2023-02-15T03:37:43;71.0;69.0;
55686;PMS5003;41911;52.362;4.978;2023-02-15T03:38:20;72.0;65.0;
55686;PMS5003;41911;52.362;4.978;2023-02-15T03:38:57;67.0;64.0;
55686;PMS5003;41911;52.362;4.978;2023-02-15T03:39:44;77.0;73.0;
55686;PMS5003;41911;52.362;4.978;2023-02-15T03:40:23;74.0;72.0;
55686;PMS5003;41911;52.362;4.978;2023-02-15T03:40:57;73.0;71.0;